sensor_id;sensor_type;location;lat;lon;timestamp;P1;durP1;ratioP1;P2;durP2;ratioP2
78312;SDS011;67568;47.438;21.408;2023-04-15T00:00:54;8.10;;;3.93;;
78312;SDS011;67568;47.438;21.408;2023-04-15T00:03:21;9.02;;;4.30;;
78312;SDS011;67568;47.438;21.408;2023-04-15T00:05:48;9.35;;;4.10;;
78312;SDS011;67568;47.438;21.408;2023-04-15T00:08:15;9.70;;;4.90;;
78312;SDS011;67568;47.438;21.408;2023-04-15T00:10:41;10.90;;;4.53;;
78312;SDS011;67568;47.438;21.408;2023-04-15T00:13:08;9.80;;;4.50;;
78312;SDS011;67568;47.438;21.408;2023-04-15T00:15:34;10.02;;;4.30;;
78312;SDS011;67568;47.438;21.408;2023-04-15T00:18:01;10.07;;;4.47;;
78312;SDS011;67568;47.438;21.408;2023-04-15T00:20:28;9.77;;;4.70;;
78312;SDS011;67568;47.438;21.408;2023-04-15T00:22:54;9.18;;;4.40;;
78312;SDS011;67568;47.438;21.408;2023-04-15T00:25:21;9.07;;;4.83;;
78312;SDS011;67568;47.438;21.408;2023-04-15T00:27:47;9.07;;;4.70;;
78312;SDS011;67568;47.438;21.408;2023-04-15T00:30:14;9.43;;;4.60;;
78312;SDS011;67568;47.438;21.408;2023-04-15T00:32:41;9.90;;;4.78;;
78312;SDS011;67568;47.438;21.408;2023-04-15T00:35:07;8.98;;;4.47;;
78312;SDS011;67568;47.438;21.408;2023-04-15T00:37:34;9.50;;;5.00;;
78312;SDS011;67568;47.438;21.408;2023-04-15T00:40:01;10.23;;;4.47;;
78312;SDS011;67568;47.438;21.408;2023-04-15T00:42:27;10.88;;;5.03;;
78312;SDS011;67568;47.438;21.408;2023-04-15T00:44:54;10.45;;;4.90;;
78312;SDS011;67568;47.438;21.408;2023-04-15T00:47:20;9.82;;;4.90;;
78312;SDS011;67568;47.438;21.408;2023-04-15T00:49:48;9.10;;;4.40;;
78312;SDS011;67568;47.438;21.408;2023-04-15T00:52:14;8.63;;;4.60;;
78312;SDS011;67568;47.438;21.408;2023-04-15T00:54:41;10.93;;;4.68;;
78312;SDS011;67568;47.438;21.408;2023-04-15T00:57:08;11.63;;;4.15;;
78312;SDS011;67568;47.438;21.408;2023-04-15T00:59:34;9.65;;;4.38;;
78312;SDS011;67568;47.438;21.408;2023-04-15T01:02:01;9.37;;;4.73;;
78312;SDS011;67568;47.438;21.408;2023-04-15T01:04:28;9.80;;;4.90;;
78312;SDS011;67568;47.438;21.408;2023-04-15T01:06:55;9.80;;;4.65;;
78312;SDS011;67568;47.438;21.408;2023-04-15T01:09:22;9.27;;;4.53;;
78312;SDS011;67568;47.438;21.408;2023-04-15T01:11:48;9.45;;;4.40;;
78312;SDS011;67568;47.438;21.408;2023-04-15T01:14:15;10.87;;;4.90;;
78312;SDS011;67568;47.438;21.408;2023-04-15T01:16:42;10.70;;;4.75;;
78312;SDS011;67568;47.438;21.408;2023-04-15T01:19:08;9.90;;;4.75;;
78312;SDS011;67568;47.438;21.408;2023-04-15T01:21:36;10.20;;;4.25;;
78312;SDS011;67568;47.438;21.408;2023-04-15T01:24:04;8.45;;;4.47;;
78312;SDS011;67568;47.438;21.408;2023-04-15T01:26:36;9.13;;;4.33;;
78312;SDS011;67568;47.438;21.408;2023-04-15T01:29:03;8.65;;;4.53;;
78312;SDS011;67568;47.438;21.408;2023-04-15T01:31:30;9.35;;;4.65;;
78312;SDS011;67568;47.438;21.408;2023-04-15T01:33:57;8.88;;;4.38;;
78312;SDS011;67568;47.438;21.408;2023-04-15T01:36:25;8.15;;;4.15;;
78312;SDS011;67568;47.438;21.408;2023-04-15T01:38:52;8.03;;;4.37;;
78312;SDS011;67568;47.438;21.408;2023-04-15T01:41:20;9.63;;;4.35;;
78312;SDS011;67568;47.438;21.408;2023-04-15T01:43:51;8.73;;;4.30;;
78312;SDS011;67568;47.438;21.408;2023-04-15T01:46:18;11.10;;;4.75;;
78312;SDS011;67568;47.438;21.408;2023-04-15T01:48:44;9.57;;;4.57;;
78312;SDS011;67568;47.438;21.408;2023-04-15T01:51:11;9.53;;;4.10;;
78312;SDS011;67568;47.438;21.408;2023-04-15T01:53:38;8.35;;;4.10;;
78312;SDS011;67568;47.438;21.408;2023-04-15T01:56:05;9.02;;;3.88;;
78312;SDS011;67568;47.438;21.408;2023-04-15T01:58:32;8.77;;;4.47;;
78312;SDS011;67568;47.438;21.408;2023-04-15T02:00:58;9.40;;;4.10;;
78312;SDS011;67568;47.438;21.408;2023-04-15T02:03:25;8.63;;;4.10;;
78312;SDS011;67568;47.438;21.408;2023-04-15T02:05:52;9.40;;;4.03;;
78312;SDS011;67568;47.438;21.408;2023-04-15T02:08:18;8.23;;;3.63;;
78312;SDS011;67568;47.438;21.408;2023-04-15T02:10:45;8.20;;;3.67;;
78312;SDS011;67568;47.438;21.408;2023-04-15T02:13:12;8.25;;;3.70;;
78312;SDS011;67568;47.438;21.408;2023-04-15T02:15:38;9.20;;;4.17;;
78312;SDS011;67568;47.438;21.408;2023-04-15T02:18:05;8.73;;;4.32;;
78312;SDS011;67568;47.438;21.408;2023-04-15T02:20:31;8.30;;;3.60;;
78312;SDS011;67568;47.438;21.408;2023-04-15T02:22:58;9.85;;;4.53;;
78312;SDS011;67568;47.438;21.408;2023-04-15T02:25:25;9.75;;;4.07;;
78312;SDS011;67568;47.438;21.408;2023-04-15T02:27:51;9.23;;;4.00;;
78312;SDS011;67568;47.438;21.408;2023-04-15T02:30:18;8.95;;;3.67;;
78312;SDS011;67568;47.438;21.408;2023-04-15T02:32:45;8.93;;;4.40;;
78312;SDS011;67568;47.438;21.408;2023-04-15T02:35:12;8.05;;;3.72;;
78312;SDS011;67568;47.438;21.408;2023-04-15T02:37:38;10.80;;;4.32;;
78312;SDS011;67568;47.438;21.408;2023-04-15T02:40:08;11.53;;;4.13;;
78312;SDS011;67568;47.438;21.408;2023-04-15T02:42:35;8.68;;;3.85;;
78312;SDS011;67568;47.438;21.408;2023-04-15T02:45:01;8.02;;;3.70;;
78312;SDS011;67568;47.438;21.408;2023-04-15T02:47:28;9.50;;;3.90;;
78312;SDS011;67568;47.438;21.408;2023-04-15T02:49:55;8.82;;;4.22;;
78312;SDS011;67568;47.438;21.408;2023-04-15T02:52:21;8.57;;;3.90;;
78312;SDS011;67568;47.438;21.408;2023-04-15T02:54:48;9.43;;;4.03;;
78312;SDS011;67568;47.438;21.408;2023-04-15T02:57:15;7.18;;;3.35;;
78312;SDS011;67568;47.438;21.408;2023-04-15T02:59:44;8.60;;;3.47;;
78312;SDS011;67568;47.438;21.408;2023-04-15T03:02:10;7.88;;;3.90;;
78312;SDS011;67568;47.438;21.408;2023-04-15T03:04:37;7.50;;;3.40;;
78312;SDS011;67568;47.438;21.408;2023-04-15T03:07:04;8.13;;;4.00;;
78312;SDS011;67568;47.438;21.408;2023-04-15T03:09:30;8.40;;;3.63;;
78312;SDS011;67568;47.438;21.408;2023-04-15T03:11:57;6.95;;;3.38;;
78312;SDS011;67568;47.438;21.408;2023-04-15T03:14:24;11.45;;;4.10;;
78312;SDS011;67568;47.438;21.408;2023-04-15T03:16:50;6.70;;;3.07;;
78312;SDS011;67568;47.438;21.408;2023-04-15T03:19:17;9.52;;;3.60;;
78312;SDS011;67568;47.438;21.408;2023-04-15T03:21:44;9.45;;;3.78;;
78312;SDS011;67568;47.438;21.408;2023-04-15T03:24:10;8.05;;;3.70;;
78312;SDS011;67568;47.438;21.408;2023-04-15T03:26:37;8.20;;;3.70;;
78312;SDS011;67568;47.438;21.408;2023-04-15T03:29:03;7.27;;;3.53;;
78312;SDS011;67568;47.438;21.408;2023-04-15T03:31:30;12.05;;;4.25;;
78312;SDS011;67568;47.438;21.408;2023-04-15T03:33:56;10.85;;;4.97;;
78312;SDS011;67568;47.438;21.408;2023-04-15T03:36:23;8.82;;;4.13;;
78312;SDS011;67568;47.438;21.408;2023-04-15T03:38:49;9.68;;;3.92;;
78312;SDS011;67568;47.438;21.408;2023-04-15T03:41:16;9.03;;;4.87;;
78312;SDS011;67568;47.438;21.408;2023-04-15T03:43:43;13.48;;;4.63;;
78312;SDS011;67568;47.438;21.408;2023-04-15T03:46:09;8.00;;;4.45;;
78312;SDS011;67568;47.438;21.408;2023-04-15T03:48:36;24.50;;;14.43;;
78312;SDS011;67568;47.438;21.408;2023-04-15T03:51:03;25.52;;;14.13;;
78312;SDS011;67568;47.438;21.408;2023-04-15T03:53:29;21.20;;;12.07;;
78312;SDS011;67568;47.438;21.408;2023-04-15T03:55:56;19.30;;;10.80;;
78312;SDS011;67568;47.438;21.408;2023-04-15T03:58:22;14.80;;;7.97;;
78312;SDS011;67568;47.438;21.408;2023-04-15T04:00:49;18.67;;;7.30;;
78312;SDS011;67568;47.438;21.408;2023-04-15T04:03:15;12.65;;;5.60;;
78312;SDS011;67568;47.438;21.408;2023-04-15T04:05:42;11.40;;;4.60;;
78312;SDS011;67568;47.438;21.408;2023-04-15T04:08:09;7.22;;;3.55;;
78312;SDS011;67568;47.438;21.408;2023-04-15T04:10:36;8.00;;;3.83;;
78312;SDS011;67568;47.438;21.408;2023-04-15T04:13:02;9.32;;;4.15;;
78312;SDS011;67568;47.438;21.408;2023-04-15T04:15:29;7.00;;;3.90;;
78312;SDS011;67568;47.438;21.408;2023-04-15T04:17:55;10.90;;;4.27;;
78312;SDS011;67568;47.438;21.408;2023-04-15T04:20:22;10.20;;;4.65;;
78312;SDS011;67568;47.438;21.408;2023-04-15T04:22:48;10.38;;;4.35;;
78312;SDS011;67568;47.438;21.408;2023-04-15T04:25:15;9.68;;;5.15;;
78312;SDS011;67568;47.438;21.408;2023-04-15T04:27:42;11.10;;;5.20;;
78312;SDS011;67568;47.438;21.408;2023-04-15T04:30:08;9.60;;;5.00;;
78312;SDS011;67568;47.438;21.408;2023-04-15T04:32:35;9.88;;;5.25;;
78312;SDS011;67568;47.438;21.408;2023-04-15T04:35:02;9.25;;;4.78;;
78312;SDS011;67568;47.438;21.408;2023-04-15T04:37:29;8.27;;;4.57;;
78312;SDS011;67568;47.438;21.408;2023-04-15T04:39:56;10.45;;;4.78;;
78312;SDS011;67568;47.438;21.408;2023-04-15T04:42:22;10.70;;;4.97;;
78312;SDS011;67568;47.438;21.408;2023-04-15T04:44:49;9.23;;;4.82;;
78312;SDS011;67568;47.438;21.408;2023-04-15T04:47:16;11.20;;;4.88;;
78312;SDS011;67568;47.438;21.408;2023-04-15T04:49:42;10.10;;;5.03;;
78312;SDS011;67568;47.438;21.408;2023-04-15T04:52:09;10.68;;;5.18;;
78312;SDS011;67568;47.438;21.408;2023-04-15T04:54:35;10.33;;;5.10;;
78312;SDS011;67568;47.438;21.408;2023-04-15T04:57:02;11.63;;;5.65;;
78312;SDS011;67568;47.438;21.408;2023-04-15T04:59:28;16.83;;;7.22;;
78312;SDS011;67568;47.438;21.408;2023-04-15T05:01:55;12.70;;;6.80;;
78312;SDS011;67568;47.438;21.408;2023-04-15T05:04:22;10.55;;;6.30;;
78312;SDS011;67568;47.438;21.408;2023-04-15T05:06:49;10.90;;;6.10;;
78312;SDS011;67568;47.438;21.408;2023-04-15T05:09:15;11.57;;;5.93;;
78312;SDS011;67568;47.438;21.408;2023-04-15T05:11:42;9.45;;;5.30;;
78312;SDS011;67568;47.438;21.408;2023-04-15T05:14:08;11.82;;;5.30;;
78312;SDS011;67568;47.438;21.408;2023-04-15T05:16:35;10.02;;;5.03;;
78312;SDS011;67568;47.438;21.408;2023-04-15T05:19:01;10.23;;;5.80;;
78312;SDS011;67568;47.438;21.408;2023-04-15T05:21:28;11.30;;;5.10;;
78312;SDS011;67568;47.438;21.408;2023-04-15T05:23:55;10.32;;;4.90;;
78312;SDS011;67568;47.438;21.408;2023-04-15T05:26:22;11.10;;;5.45;;
78312;SDS011;67568;47.438;21.408;2023-04-15T05:28:49;10.15;;;5.43;;
78312;SDS011;67568;47.438;21.408;2023-04-15T05:31:15;8.90;;;4.40;;
78312;SDS011;67568;47.438;21.408;2023-04-15T05:33:42;10.43;;;4.85;;
78312;SDS011;67568;47.438;21.408;2023-04-15T05:36:09;9.52;;;4.50;;
78312;SDS011;67568;47.438;21.408;2023-04-15T05:38:36;10.52;;;5.30;;
78312;SDS011;67568;47.438;21.408;2023-04-15T05:41:02;10.15;;;5.03;;
78312;SDS011;67568;47.438;21.408;2023-04-15T05:43:29;10.53;;;4.37;;
78312;SDS011;67568;47.438;21.408;2023-04-15T05:45:56;8.65;;;4.60;;
78312;SDS011;67568;47.438;21.408;2023-04-15T05:48:22;9.55;;;4.70;;
78312;SDS011;67568;47.438;21.408;2023-04-15T05:50:49;10.98;;;5.03;;
78312;SDS011;67568;47.438;21.408;2023-04-15T05:53:16;10.02;;;4.55;;
78312;SDS011;67568;47.438;21.408;2023-04-15T05:55:42;8.77;;;4.57;;
78312;SDS011;67568;47.438;21.408;2023-04-15T05:58:09;12.60;;;5.63;;
78312;SDS011;67568;47.438;21.408;2023-04-15T06:00:36;10.43;;;6.50;;
78312;SDS011;67568;47.438;21.408;2023-04-15T06:03:02;10.23;;;5.20;;
78312;SDS011;67568;47.438;21.408;2023-04-15T06:05:29;8.93;;;4.90;;
78312;SDS011;67568;47.438;21.408;2023-04-15T06:07:56;9.80;;;5.60;;
78312;SDS011;67568;47.438;21.408;2023-04-15T06:10:22;9.88;;;4.95;;
78312;SDS011;67568;47.438;21.408;2023-04-15T06:12:49;9.77;;;4.65;;
78312;SDS011;67568;47.438;21.408;2023-04-15T06:15:18;9.48;;;5.20;;
78312;SDS011;67568;47.438;21.408;2023-04-15T06:17:45;11.50;;;4.50;;
78312;SDS011;67568;47.438;21.408;2023-04-15T06:20:11;8.27;;;4.03;;
78312;SDS011;67568;47.438;21.408;2023-04-15T06:22:38;8.73;;;3.92;;
78312;SDS011;67568;47.438;21.408;2023-04-15T06:25:05;7.40;;;3.63;;
78312;SDS011;67568;47.438;21.408;2023-04-15T06:27:32;8.55;;;3.53;;
78312;SDS011;67568;47.438;21.408;2023-04-15T06:29:59;7.32;;;3.55;;
78312;SDS011;67568;47.438;21.408;2023-04-15T06:32:25;8.27;;;3.47;;
78312;SDS011;67568;47.438;21.408;2023-04-15T06:34:52;7.80;;;3.10;;
78312;SDS011;67568;47.438;21.408;2023-04-15T06:37:19;8.30;;;3.55;;
78312;SDS011;67568;47.438;21.408;2023-04-15T06:39:45;7.65;;;3.50;;
78312;SDS011;67568;47.438;21.408;2023-04-15T06:42:12;8.45;;;4.03;;
78312;SDS011;67568;47.438;21.408;2023-04-15T06:44:39;11.30;;;3.53;;
78312;SDS011;67568;47.438;21.408;2023-04-15T06:47:05;8.88;;;2.97;;
78312;SDS011;67568;47.438;21.408;2023-04-15T06:49:32;9.80;;;3.10;;
78312;SDS011;67568;47.438;21.408;2023-04-15T06:51:59;9.63;;;3.42;;
78312;SDS011;67568;47.438;21.408;2023-04-15T06:54:26;6.95;;;3.10;;
78312;SDS011;67568;47.438;21.408;2023-04-15T06:56:52;15.00;;;5.47;;
78312;SDS011;67568;47.438;21.408;2023-04-15T06:59:19;6.43;;;3.10;;
78312;SDS011;67568;47.438;21.408;2023-04-15T07:01:46;5.95;;;2.60;;
78312;SDS011;67568;47.438;21.408;2023-04-15T07:04:12;8.82;;;3.65;;
78312;SDS011;67568;47.438;21.408;2023-04-15T07:06:39;7.10;;;3.10;;
78312;SDS011;67568;47.438;21.408;2023-04-15T07:09:05;8.83;;;3.00;;
78312;SDS011;67568;47.438;21.408;2023-04-15T07:11:32;6.03;;;2.88;;
78312;SDS011;67568;47.438;21.408;2023-04-15T07:13:59;6.30;;;3.00;;
78312;SDS011;67568;47.438;21.408;2023-04-15T07:16:25;7.53;;;3.10;;
78312;SDS011;67568;47.438;21.408;2023-04-15T07:18:55;7.40;;;3.00;;
78312;SDS011;67568;47.438;21.408;2023-04-15T07:21:22;8.50;;;3.03;;
78312;SDS011;67568;47.438;21.408;2023-04-15T07:23:49;7.18;;;2.80;;
78312;SDS011;67568;47.438;21.408;2023-04-15T07:26:16;5.88;;;2.13;;
78312;SDS011;67568;47.438;21.408;2023-04-15T07:28:43;5.57;;;2.20;;
78312;SDS011;67568;47.438;21.408;2023-04-15T07:31:09;5.95;;;2.20;;
78312;SDS011;67568;47.438;21.408;2023-04-15T07:33:36;8.60;;;2.00;;
78312;SDS011;67568;47.438;21.408;2023-04-15T07:36:02;5.25;;;1.98;;
78312;SDS011;67568;47.438;21.408;2023-04-15T07:38:30;5.07;;;2.45;;
78312;SDS011;67568;47.438;21.408;2023-04-15T07:40:57;5.75;;;2.17;;
78312;SDS011;67568;47.438;21.408;2023-04-15T07:43:24;4.82;;;2.10;;
78312;SDS011;67568;47.438;21.408;2023-04-15T07:45:51;7.60;;;2.40;;
78312;SDS011;67568;47.438;21.408;2023-04-15T07:48:17;4.45;;;1.67;;
78312;SDS011;67568;47.438;21.408;2023-04-15T07:50:44;6.30;;;1.50;;
78312;SDS011;67568;47.438;21.408;2023-04-15T07:53:11;5.22;;;2.28;;
78312;SDS011;67568;47.438;21.408;2023-04-15T07:55:37;5.75;;;2.20;;
78312;SDS011;67568;47.438;21.408;2023-04-15T07:58:04;4.87;;;1.80;;
78312;SDS011;67568;47.438;21.408;2023-04-15T08:00:30;5.40;;;1.83;;
78312;SDS011;67568;47.438;21.408;2023-04-15T08:02:57;5.32;;;1.67;;
78312;SDS011;67568;47.438;21.408;2023-04-15T08:05:24;6.47;;;1.83;;
78312;SDS011;67568;47.438;21.408;2023-04-15T08:07:50;5.38;;;2.08;;
78312;SDS011;67568;47.438;21.408;2023-04-15T08:10:17;5.53;;;1.90;;
78312;SDS011;67568;47.438;21.408;2023-04-15T08:12:44;8.20;;;2.15;;
78312;SDS011;67568;47.438;21.408;2023-04-15T08:15:10;5.70;;;2.08;;
78312;SDS011;67568;47.438;21.408;2023-04-15T08:17:37;4.57;;;1.90;;
78312;SDS011;67568;47.438;21.408;2023-04-15T08:20:04;5.57;;;1.90;;
78312;SDS011;67568;47.438;21.408;2023-04-15T08:22:31;5.83;;;2.43;;
78312;SDS011;67568;47.438;21.408;2023-04-15T08:24:57;6.57;;;2.33;;
78312;SDS011;67568;47.438;21.408;2023-04-15T08:27:24;5.82;;;2.20;;
78312;SDS011;67568;47.438;21.408;2023-04-15T08:29:51;4.93;;;1.92;;
78312;SDS011;67568;47.438;21.408;2023-04-15T08:32:17;8.70;;;2.28;;
78312;SDS011;67568;47.438;21.408;2023-04-15T08:34:44;5.13;;;2.33;;
78312;SDS011;67568;47.438;21.408;2023-04-15T08:37:13;4.38;;;2.15;;
78312;SDS011;67568;47.438;21.408;2023-04-15T08:39:40;5.00;;;2.15;;
78312;SDS011;67568;47.438;21.408;2023-04-15T08:42:10;6.43;;;2.10;;
78312;SDS011;67568;47.438;21.408;2023-04-15T08:44:41;4.28;;;1.98;;
78312;SDS011;67568;47.438;21.408;2023-04-15T08:47:08;5.17;;;1.87;;
78312;SDS011;67568;47.438;21.408;2023-04-15T08:49:39;5.00;;;1.77;;
78312;SDS011;67568;47.438;21.408;2023-04-15T08:52:06;4.80;;;1.73;;
78312;SDS011;67568;47.438;21.408;2023-04-15T08:54:34;5.03;;;1.67;;
78312;SDS011;67568;47.438;21.408;2023-04-15T08:57:00;5.18;;;1.55;;
78312;SDS011;67568;47.438;21.408;2023-04-15T08:59:31;3.10;;;1.10;;
78312;SDS011;67568;47.438;21.408;2023-04-15T09:01:58;3.72;;;1.55;;
78312;SDS011;67568;47.438;21.408;2023-04-15T09:04:24;5.38;;;1.40;;
78312;SDS011;67568;47.438;21.408;2023-04-15T09:06:51;3.60;;;1.38;;
78312;SDS011;67568;47.438;21.408;2023-04-15T09:09:17;5.55;;;1.60;;
78312;SDS011;67568;47.438;21.408;2023-04-15T09:11:44;3.43;;;1.23;;
78312;SDS011;67568;47.438;21.408;2023-04-15T09:14:11;3.75;;;1.30;;
78312;SDS011;67568;47.438;21.408;2023-04-15T09:16:56;3.00;;;0.93;;
78312;SDS011;67568;47.438;21.408;2023-04-15T09:19:25;2.53;;;1.00;;
78312;SDS011;67568;47.438;21.408;2023-04-15T09:21:52;4.32;;;1.20;;
78312;SDS011;67568;47.438;21.408;2023-04-15T09:24:24;4.17;;;1.20;;
78312;SDS011;67568;47.438;21.408;2023-04-15T09:26:52;3.47;;;1.40;;
78312;SDS011;67568;47.438;21.408;2023-04-15T09:29:19;4.38;;;1.02;;
78312;SDS011;67568;47.438;21.408;2023-04-15T09:31:49;3.70;;;1.20;;
78312;SDS011;67568;47.438;21.408;2023-04-15T09:34:16;4.00;;;1.40;;
78312;SDS011;67568;47.438;21.408;2023-04-15T09:39:15;5.75;;;1.58;;
78312;SDS011;67568;47.438;21.408;2023-04-15T09:41:42;5.40;;;1.35;;
78312;SDS011;67568;47.438;21.408;2023-04-15T09:44:21;3.33;;;1.20;;
78312;SDS011;67568;47.438;21.408;2023-04-15T09:46:49;4.10;;;1.38;;
78312;SDS011;67568;47.438;21.408;2023-04-15T09:49:15;4.73;;;1.10;;
78312;SDS011;67568;47.438;21.408;2023-04-15T09:51:42;3.50;;;1.20;;
78312;SDS011;67568;47.438;21.408;2023-04-15T09:54:23;4.60;;;1.42;;
78312;SDS011;67568;47.438;21.408;2023-04-15T09:56:49;4.63;;;1.20;;
78312;SDS011;67568;47.438;21.408;2023-04-15T09:59:16;3.58;;;1.08;;
78312;SDS011;67568;47.438;21.408;2023-04-15T10:01:44;4.13;;;0.97;;
78312;SDS011;67568;47.438;21.408;2023-04-15T10:04:12;4.40;;;1.15;;
78312;SDS011;67568;47.438;21.408;2023-04-15T10:06:39;3.88;;;1.25;;
78312;SDS011;67568;47.438;21.408;2023-04-15T10:09:06;3.47;;;0.98;;
78312;SDS011;67568;47.438;21.408;2023-04-15T10:11:33;2.65;;;0.93;;
78312;SDS011;67568;47.438;21.408;2023-04-15T10:14:00;2.50;;;0.80;;
78312;SDS011;67568;47.438;21.408;2023-04-15T10:16:28;6.20;;;1.08;;
78312;SDS011;67568;47.438;21.408;2023-04-15T10:18:59;5.22;;;1.63;;
78312;SDS011;67568;47.438;21.408;2023-04-15T10:21:27;8.68;;;2.30;;
78312;SDS011;67568;47.438;21.408;2023-04-15T10:23:55;3.33;;;1.17;;
78312;SDS011;67568;47.438;21.408;2023-04-15T10:26:23;5.63;;;1.80;;
78312;SDS011;67568;47.438;21.408;2023-04-15T10:28:50;9.15;;;3.00;;
78312;SDS011;67568;47.438;21.408;2023-04-15T10:31:18;4.72;;;1.38;;
78312;SDS011;67568;47.438;21.408;2023-04-15T10:33:45;6.55;;;1.13;;
78312;SDS011;67568;47.438;21.408;2023-04-15T10:36:13;5.13;;;1.75;;
78312;SDS011;67568;47.438;21.408;2023-04-15T10:38:44;4.87;;;1.07;;
78312;SDS011;67568;47.438;21.408;2023-04-15T10:41:15;3.92;;;1.30;;
78312;SDS011;67568;47.438;21.408;2023-04-15T10:43:51;2.85;;;1.10;;
78312;SDS011;67568;47.438;21.408;2023-04-15T10:46:23;3.60;;;0.95;;
78312;SDS011;67568;47.438;21.408;2023-04-15T10:49:14;4.20;;;1.15;;
78312;SDS011;67568;47.438;21.408;2023-04-15T10:51:45;3.30;;;0.80;;
78312;SDS011;67568;47.438;21.408;2023-04-15T10:56:47;3.97;;;0.93;;
78312;SDS011;67568;47.438;21.408;2023-04-15T10:59:17;5.63;;;0.75;;
78312;SDS011;67568;47.438;21.408;2023-04-15T11:01:49;3.05;;;1.10;;
78312;SDS011;67568;47.438;21.408;2023-04-15T11:07:33;3.55;;;1.00;;
78312;SDS011;67568;47.438;21.408;2023-04-15T11:10:02;2.78;;;0.77;;
78312;SDS011;67568;47.438;21.408;2023-04-15T11:13:35;2.78;;;0.90;;
78312;SDS011;67568;47.438;21.408;2023-04-15T11:18:11;4.50;;;1.00;;
78312;SDS011;67568;47.438;21.408;2023-04-15T11:20:43;2.45;;;0.80;;
78312;SDS011;67568;47.438;21.408;2023-04-15T11:23:13;3.05;;;0.90;;
78312;SDS011;67568;47.438;21.408;2023-04-15T11:25:41;4.25;;;1.20;;
78312;SDS011;67568;47.438;21.408;2023-04-15T11:28:08;4.60;;;1.30;;
78312;SDS011;67568;47.438;21.408;2023-04-15T11:30:37;4.33;;;1.50;;
78312;SDS011;67568;47.438;21.408;2023-04-15T11:33:05;3.67;;;1.30;;
78312;SDS011;67568;47.438;21.408;2023-04-15T11:35:37;3.08;;;1.27;;
78312;SDS011;67568;47.438;21.408;2023-04-15T11:38:04;1.98;;;0.80;;
78312;SDS011;67568;47.438;21.408;2023-04-15T11:40:33;2.88;;;0.93;;
78312;SDS011;67568;47.438;21.408;2023-04-15T11:43:10;6.47;;;1.20;;
78312;SDS011;67568;47.438;21.408;2023-04-15T11:45:54;3.58;;;1.02;;
78312;SDS011;67568;47.438;21.408;2023-04-15T11:48:33;4.90;;;1.23;;
78312;SDS011;67568;47.438;21.408;2023-04-15T11:51:01;3.83;;;1.10;;
78312;SDS011;67568;47.438;21.408;2023-04-15T11:53:43;4.10;;;1.20;;
78312;SDS011;67568;47.438;21.408;2023-04-15T11:56:18;2.33;;;0.90;;
78312;SDS011;67568;47.438;21.408;2023-04-15T11:58:53;2.58;;;0.95;;
78312;SDS011;67568;47.438;21.408;2023-04-15T12:01:29;3.78;;;1.10;;
78312;SDS011;67568;47.438;21.408;2023-04-15T12:03:57;3.05;;;1.20;;
78312;SDS011;67568;47.438;21.408;2023-04-15T12:06:24;2.83;;;1.00;;
78312;SDS011;67568;47.438;21.408;2023-04-15T12:08:57;2.80;;;0.90;;
78312;SDS011;67568;47.438;21.408;2023-04-15T12:11:28;3.38;;;1.27;;
78312;SDS011;67568;47.438;21.408;2023-04-15T12:13:56;3.63;;;1.15;;
78312;SDS011;67568;47.438;21.408;2023-04-15T12:16:26;3.15;;;1.10;;
78312;SDS011;67568;47.438;21.408;2023-04-15T12:18:54;4.35;;;1.20;;
78312;SDS011;67568;47.438;21.408;2023-04-15T12:21:22;3.40;;;1.20;;
78312;SDS011;67568;47.438;21.408;2023-04-15T12:23:50;3.10;;;0.90;;
78312;SDS011;67568;47.438;21.408;2023-04-15T12:26:25;2.97;;;0.90;;
78312;SDS011;67568;47.438;21.408;2023-04-15T12:28:59;4.20;;;1.10;;
78312;SDS011;67568;47.438;21.408;2023-04-15T12:31:30;2.45;;;1.10;;
78312;SDS011;67568;47.438;21.408;2023-04-15T12:33:57;3.17;;;0.83;;
78312;SDS011;67568;47.438;21.408;2023-04-15T12:36:24;3.55;;;1.08;;
78312;SDS011;67568;47.438;21.408;2023-04-15T12:38:51;2.65;;;1.00;;
78312;SDS011;67568;47.438;21.408;2023-04-15T12:41:18;2.53;;;0.93;;
78312;SDS011;67568;47.438;21.408;2023-04-15T12:43:46;4.07;;;1.30;;
78312;SDS011;67568;47.438;21.408;2023-04-15T12:46:12;2.37;;;0.97;;
78312;SDS011;67568;47.438;21.408;2023-04-15T12:48:39;3.90;;;0.90;;
78312;SDS011;67568;47.438;21.408;2023-04-15T12:51:06;3.13;;;1.23;;
78312;SDS011;67568;47.438;21.408;2023-04-15T12:53:32;4.15;;;1.10;;
78312;SDS011;67568;47.438;21.408;2023-04-15T12:55:59;3.65;;;0.90;;
78312;SDS011;67568;47.438;21.408;2023-04-15T12:58:26;2.37;;;1.00;;
78312;SDS011;67568;47.438;21.408;2023-04-15T13:00:52;2.42;;;1.05;;
78312;SDS011;67568;47.438;21.408;2023-04-15T13:03:19;5.22;;;1.25;;
78312;SDS011;67568;47.438;21.408;2023-04-15T13:05:46;2.25;;;1.08;;
78312;SDS011;67568;47.438;21.408;2023-04-15T13:08:12;4.82;;;1.50;;
78312;SDS011;67568;47.438;21.408;2023-04-15T13:10:39;3.47;;;1.50;;
78312;SDS011;67568;47.438;21.408;2023-04-15T13:13:05;4.18;;;1.50;;
78312;SDS011;67568;47.438;21.408;2023-04-15T13:15:32;4.88;;;1.40;;
78312;SDS011;67568;47.438;21.408;2023-04-15T13:17:59;4.32;;;1.40;;
78312;SDS011;67568;47.438;21.408;2023-04-15T13:20:26;4.25;;;1.50;;
78312;SDS011;67568;47.438;21.408;2023-04-15T13:22:53;4.57;;;1.43;;
78312;SDS011;67568;47.438;21.408;2023-04-15T13:25:20;5.55;;;1.40;;
78312;SDS011;67568;47.438;21.408;2023-04-15T13:27:46;5.45;;;1.70;;
78312;SDS011;67568;47.438;21.408;2023-04-15T13:30:13;4.35;;;1.40;;
78312;SDS011;67568;47.438;21.408;2023-04-15T13:32:39;3.67;;;1.30;;
78312;SDS011;67568;47.438;21.408;2023-04-15T13:35:06;4.13;;;1.50;;
78312;SDS011;67568;47.438;21.408;2023-04-15T13:37:33;4.70;;;1.35;;
78312;SDS011;67568;47.438;21.408;2023-04-15T13:39:59;10.57;;;1.75;;
78312;SDS011;67568;47.438;21.408;2023-04-15T13:42:26;4.18;;;1.23;;
78312;SDS011;67568;47.438;21.408;2023-04-15T13:44:52;3.40;;;1.25;;
78312;SDS011;67568;47.438;21.408;2023-04-15T13:47:19;4.67;;;1.53;;
78312;SDS011;67568;47.438;21.408;2023-04-15T13:49:46;5.35;;;1.52;;
78312;SDS011;67568;47.438;21.408;2023-04-15T13:52:13;4.10;;;1.67;;
78312;SDS011;67568;47.438;21.408;2023-04-15T13:54:39;7.32;;;2.50;;
78312;SDS011;67568;47.438;21.408;2023-04-15T13:57:06;6.10;;;2.60;;
78312;SDS011;67568;47.438;21.408;2023-04-15T13:59:33;6.10;;;2.80;;
78312;SDS011;67568;47.438;21.408;2023-04-15T14:02:00;5.95;;;2.40;;
78312;SDS011;67568;47.438;21.408;2023-04-15T14:04:27;5.80;;;1.92;;
78312;SDS011;67568;47.438;21.408;2023-04-15T14:06:53;4.13;;;1.90;;
78312;SDS011;67568;47.438;21.408;2023-04-15T14:09:21;5.47;;;2.00;;
78312;SDS011;67568;47.438;21.408;2023-04-15T14:11:51;4.77;;;2.20;;
78312;SDS011;67568;47.438;21.408;2023-04-15T14:14:18;4.70;;;2.00;;
78312;SDS011;67568;47.438;21.408;2023-04-15T14:16:44;4.60;;;1.80;;
78312;SDS011;67568;47.438;21.408;2023-04-15T14:19:11;5.47;;;2.45;;
78312;SDS011;67568;47.438;21.408;2023-04-15T14:21:38;5.97;;;2.85;;
78312;SDS011;67568;47.438;21.408;2023-04-15T14:24:04;6.30;;;2.50;;
78312;SDS011;67568;47.438;21.408;2023-04-15T14:26:31;5.35;;;2.13;;
78312;SDS011;67568;47.438;21.408;2023-04-15T14:28:58;4.65;;;1.92;;
78312;SDS011;67568;47.438;21.408;2023-04-15T14:31:25;7.57;;;1.90;;
78312;SDS011;67568;47.438;21.408;2023-04-15T14:33:51;4.95;;;2.20;;
78312;SDS011;67568;47.438;21.408;2023-04-15T14:36:18;4.93;;;2.10;;
78312;SDS011;67568;47.438;21.408;2023-04-15T14:38:44;5.47;;;2.17;;
78312;SDS011;67568;47.438;21.408;2023-04-15T14:41:13;3.83;;;1.90;;
78312;SDS011;67568;47.438;21.408;2023-04-15T14:43:40;5.03;;;1.70;;